Time;durP1;ratioP1;P1;durP2;ratioP2;P2;SDS_P1;SDS_P2;PMS_P1;PMS_P2;Temp;Humidity;BMP_temperature;BMP_pressure;BME280_temperature;BME280_humidity;BME280_pressure;Samples;Min_cycle;Max_cycle;Signal;HPM_P1;HPM_P2
2023/08/29 00:00:43;;;;;;;12.20;9.00;;;11.80;99.90;;;;;;6219052;23;20025;-93
2023/08/29 00:03:33;;;;;;;12.65;9.32;;;11.80;99.90;;;;;;6196341;23;20439;-92
2023/08/29 00:06:23;;;;;;;12.02;9.43;;;11.80;99.90;;;;;;6196866;23;20032;-91
2023/08/29 00:09:39;;;;;;;14.05;10.07;;;11.80;99.90;;;;;;6194204;23;20031;-92
2023/08/29 00:12:36;;;;;;;;;;;;;;;;;;;;;
2023/08/29 00:15:29;;;;;;;11.25;9.50;;;11.80;99.90;;;;;;6217980;23;20084;-93
2023/08/29 00:18:19;;;;;;;12.85;9.52;;;11.80;99.90;;;;;;6218894;23;20020;-91
2023/08/29 00:21:07;;;;;;;13.23;10.05;;;11.80;99.90;;;;;;6175863;23;20280;-93
2023/08/29 00:23:59;;;;;;;13.73;10.43;;;11.70;99.90;;;;;;6216461;23;20111;-94
2023/08/29 00:27:10;;;;;;;14.48;10.07;;;11.70;99.90;;;;;;6125477;23;20104;-92
2023/08/29 00:30:03;;;;;;;14.13;7.25;;;11.70;99.90;;;;;;6127462;23;20034;-91
2023/08/29 00:32:52;;;;;;;16.65;9.88;;;11.70;99.90;;;;;;6107559;23;20442;-94
2023/08/29 00:35:48;;;;;;;11.63;9.80;;;11.70;99.90;;;;;;6109616;23;20340;-94
2023/08/29 00:38:38;;;;;;;12.82;9.80;;;11.70;99.90;;;;;;6126454;23;20390;-93
2023/08/29 00:41:39;;;;;;;13.85;10.30;;;11.70;99.90;;;;;;6107857;23;20417;-93
2023/08/29 00:44:26;;;;;;;12.55;10.88;;;11.70;99.90;;;;;;6107552;23;20029;-92
2023/08/29 00:47:18;;;;;;;13.43;9.82;;;11.70;99.90;;;;;;6126930;23;20032;-93
2023/08/29 00:50:08;;;;;;;14.18;10.77;;;11.70;99.90;;;;;;6107610;23;20022;-93
2023/08/29 00:53:19;;;;;;;11.30;9.98;;;11.70;99.90;;;;;;6106867;23;20112;-94
2023/08/29 00:56:19;;;;;;;11.93;9.82;;;11.70;99.90;;;;;;6140555;23;20067;-93
2023/08/29 00:59:19;;;;;;;11.65;9.90;;;11.70;99.90;;;;;;6219499;23;20021;-92
2023/08/29 01:02:10;;;;;;;19.23;10.30;;;11.70;99.90;;;;;;6195770;23;20021;-91
2023/08/29 01:04:59;;;;;;;14.15;10.40;;;11.70;99.90;;;;;;6201424;23;20043;-91
2023/08/29 01:08:03;;;;;;;12.25;9.70;;;11.70;99.90;;;;;;6228375;23;20024;-92
2023/08/29 01:14:54;;;;;;;13.65;9.50;;;11.70;99.90;;;;;;6216004;23;20020;-93
2023/08/29 01:18:00;;;;;;;11.07;9.80;;;11.80;99.90;;;;;;6198699;23;20024;-93
2023/08/29 01:25:19;;;;;;;13.20;10.73;;;11.70;99.90;;;;;;6218179;23;20032;-92
2023/08/29 01:28:08;;;;;;;12.93;10.07;;;11.70;99.90;;;;;;6220025;23;20035;-92
2023/08/29 01:31:21;;;;;;;14.73;9.93;;;11.80;99.90;;;;;;6196777;23;20328;-93
2023/08/29 01:34:23;;;;;;;11.30;9.82;;;11.80;99.90;;;;;;6198012;23;20031;-93
2023/08/29 01:37:15;;;;;;;10.63;9.05;;;11.80;99.90;;;;;;6197961;23;20036;-95
2023/08/29 01:40:20;;;;;;;13.15;9.43;;;11.70;99.90;;;;;;6216486;23;20030;-94
2023/08/29 01:43:07;;;;;;;15.27;10.10;;;11.70;99.90;;;;;;6217602;23;20025;-93
2023/08/29 01:45:54;;;;;;;10.40;9.25;;;11.70;99.90;;;;;;6198457;23;20029;-93
2023/08/29 01:48:43;;;;;;;14.55;9.73;;;11.80;99.90;;;;;;6218317;23;20033;-92
2023/08/29 01:51:30;;;;;;;12.90;9.15;;;11.80;99.90;;;;;;6195554;23;20364;-93
2023/08/29 01:54:18;;;;;;;10.80;8.73;;;11.80;99.90;;;;;;6197053;23;20554;-93
2023/08/29 01:57:09;;;;;;;14.50;9.23;;;11.70;99.90;;;;;;6196726;23;20107;-94
2023/08/29 02:00:22;;;;;;;11.32;9.13;;;11.80;99.90;;;;;;6197629;23;20301;-93
2023/08/29 02:03:20;;;;;;;;;;;;;;;;;;;;;
2023/08/29 02:06:30;;;;;;;10.30;9.07;;;11.80;99.90;;;;;;6217154;23;20043;-91
2023/08/29 02:09:25;;;;;;;11.82;9.30;;;11.80;99.90;;;;;;6198591;23;20028;-91
2023/08/29 02:12:13;;;;;;;12.60;9.38;;;11.80;99.90;;;;;;6197004;23;20111;-92
2023/08/29 02:15:02;;;;;;;16.15;10.95;;;11.80;99.90;;;;;;6217371;23;20039;-94
2023/08/29 02:17:59;;;;;;;14.90;11.25;;;11.70;99.90;;;;;;6218633;23;20037;-93
2023/08/29 02:20:47;;;;;;;13.85;10.50;;;11.80;99.90;;;;;;6216081;23;20020;-93
2023/08/29 02:23:36;;;;;;;16.15;11.18;;;11.80;99.90;;;;;;6217151;23;20040;-93
2023/08/29 02:26:43;;;;;;;14.23;11.52;;;11.80;99.90;;;;;;6218695;23;20100;-95
2023/08/29 02:29:47;;;;;;;14.57;12.30;;;11.80;99.90;;;;;;6196624;23;20392;-93
2023/08/29 02:32:40;;;;;;;15.52;12.10;;;11.90;99.90;;;;;;6219450;23;20032;-94
2023/08/29 02:35:28;;;;;;;18.00;13.32;;;11.90;99.90;;;;;;6197545;23;20084;-92
2023/08/29 02:38:23;;;;;;;17.08;12.85;;;11.90;99.90;;;;;;6198068;23;20096;-93
2023/08/29 02:41:11;;;;;;;18.40;13.82;;;11.90;99.90;;;;;;6201730;23;20016;-93
2023/08/29 02:44:03;;;;;;;18.70;13.30;;;11.90;99.90;;;;;;6206609;23;20630;-92
2023/08/29 02:46:53;;;;;;;19.27;14.20;;;11.90;99.90;;;;;;6202317;23;20025;-92
2023/08/29 02:49:50;;;;;;;20.20;14.32;;;11.90;99.90;;;;;;6223510;23;20079;-94
2023/08/29 02:52:37;;;;;;;17.75;14.07;;;11.90;99.90;;;;;;6216834;23;20439;-93
2023/08/29 02:55:26;;;;;;;20.05;13.55;;;11.90;99.90;;;;;;6220689;23;20301;-93
2023/08/29 02:58:14;;;;;;;22.33;13.32;;;12.00;99.90;;;;;;6216876;23;20028;-91
2023/08/29 03:01:11;;;;;;;15.48;13.77;;;12.00;99.90;;;;;;6218779;23;20131;-93
2023/08/29 03:03:58;;;;;;;15.77;13.48;;;11.90;99.90;;;;;;6195682;23;20076;-91
2023/08/29 03:06:47;;;;;;;22.40;14.20;;;12.00;99.90;;;;;;6218622;23;20021;-93
2023/08/29 03:09:34;;;;;;;17.73;14.15;;;12.00;99.90;;;;;;6217857;23;20051;-93
2023/08/29 03:12:22;;;;;;;18.70;14.70;;;12.00;99.90;;;;;;6218943;23;20375;-92
2023/08/29 03:15:10;;;;;;;19.67;14.40;;;12.00;99.90;;;;;;6205783;23;20417;-94
2023/08/29 03:18:00;;;;;;;17.83;14.63;;;11.90;99.90;;;;;;6219158;23;20043;-92
2023/08/29 03:20:54;;;;;;;19.02;15.65;;;11.90;99.90;;;;;;6216873;23;20025;-93
2023/08/29 03:23:43;;;;;;;16.67;14.32;;;11.90;99.90;;;;;;6217150;23;20141;-93
2023/08/29 03:26:31;;;;;;;19.88;16.08;;;11.90;99.90;;;;;;6216905;23;20082;-91
2023/08/29 03:29:26;;;;;;;22.05;17.10;;;11.90;99.90;;;;;;6216542;23;20116;-93
2023/08/29 03:32:13;;;;;;;18.13;16.23;;;11.90;99.90;;;;;;6217342;23;20131;-91
2023/08/29 03:35:02;;;;;;;20.23;17.00;;;11.90;99.90;;;;;;6217023;23;20025;-91
2023/08/29 03:37:51;;;;;;;28.50;18.63;;;11.90;99.90;;;;;;6217250;23;20140;-91
2023/08/29 03:40:40;;;;;;;22.17;18.67;;;11.90;99.90;;;;;;6195717;23;20055;-91
2023/08/29 03:43:27;;;;;;;24.83;18.80;;;11.90;99.90;;;;;;6186498;23;20483;-92
2023/08/29 03:46:37;;;;;;;26.27;18.73;;;11.90;99.90;;;;;;6219076;23;20029;-91
2023/08/29 03:49:32;;;;;;;24.83;20.50;;;11.90;99.90;;;;;;6196651;23;20035;-91
2023/08/29 03:52:26;;;;;;;25.67;20.20;;;11.90;99.90;;;;;;6218093;23;20047;-91
2023/08/29 03:55:13;;;;;;;25.60;21.77;;;11.80;99.90;;;;;;6216882;23;20033;-92
2023/08/29 03:58:04;;;;;;;31.25;21.90;;;11.80;99.90;;;;;;6216994;23;20035;-92
2023/08/29 04:01:20;;;;;;;29.27;22.50;;;11.90;99.90;;;;;;6217242;23;20099;-91
2023/08/29 04:04:13;;;;;;;29.10;23.55;;;11.90;99.90;;;;;;6194364;23;20112;-92
2023/08/29 04:07:04;;;;;;;32.67;23.83;;;11.90;99.90;;;;;;6218032;23;20029;-93
2023/08/29 04:09:54;;;;;;;30.33;23.75;;;11.90;99.90;;;;;;6217495;23;20024;-92
2023/08/29 04:12:54;;;;;;;33.08;24.58;;;11.90;99.90;;;;;;6218250;23;20026;-89
2023/08/29 04:15:41;;;;;;;30.77;24.60;;;11.90;99.90;;;;;;6198146;23;20031;-91
2023/08/29 04:18:50;;;;;;;34.00;24.88;;;11.90;99.90;;;;;;6215395;23;20021;-87
2023/08/29 04:24:50;;;;;;;36.67;27.17;;;11.80;99.90;;;;;;6209183;22;20401;-88
2023/08/29 04:27:41;;;;;;;36.10;27.40;;;11.80;99.90;;;;;;6253856;22;20250;-92
2023/08/29 04:30:39;;;;;;;40.17;28.35;;;11.80;99.90;;;;;;6257659;22;20023;-92
2023/08/29 04:33:49;;;;;;;41.78;30.50;;;11.80;99.90;;;;;;6246626;22;20034;-93
2023/08/29 04:57:37;;;;;;;43.13;29.55;;;11.80;99.90;;;;;;6122339;23;20010;-89
2023/08/29 05:00:24;;;;;;;44.03;31.02;;;11.80;99.90;;;;;;6208463;22;20024;-86
2023/08/29 05:03:11;;;;;;;43.15;30.15;;;11.80;99.90;;;;;;6277453;22;20030;-86
2023/08/29 05:06:01;;;;;;;44.03;30.17;;;11.80;99.90;;;;;;6279232;22;20027;-84
2023/08/29 05:08:48;;;;;;;42.58;31.35;;;11.80;99.90;;;;;;6276598;22;20023;-86
2023/08/29 05:11:35;;;;;;;43.75;30.92;;;11.80;99.90;;;;;;6277902;22;20035;-86
2023/08/29 05:14:22;;;;;;;44.35;30.05;;;11.90;99.90;;;;;;6277262;22;20023;-86
2023/08/29 05:17:11;;;;;;;41.38;30.17;;;11.90;99.90;;;;;;6275014;22;20023;-87
2023/08/29 05:20:01;;;;;;;48.38;31.73;;;11.90;99.90;;;;;;6279008;22;20648;-85
2023/08/29 05:22:49;;;;;;;39.78;30.67;;;11.90;99.90;;;;;;6276305;22;20035;-86
2023/08/29 05:25:36;;;;;;;39.70;29.63;;;11.90;99.90;;;;;;6275018;22;20311;-89
2023/08/29 05:28:23;;;;;;;39.70;29.20;;;11.90;99.90;;;;;;6252390;22;20122;-87
2023/08/29 05:31:55;;;;;;;44.13;31.80;;;12.00;99.90;;;;;;6273805;22;20031;-86
2023/08/29 05:34:46;;;;;;;44.97;31.42;;;12.00;99.90;;;;;;6252533;22;20074;-86
2023/08/29 05:38:03;;;;;;;43.67;30.92;;;12.00;99.90;;;;;;6273883;22;20024;-93
2023/08/29 05:45:36;;;;;;;;;;;;;;;;;;;;;
2023/08/29 05:48:45;;;;;;;46.20;33.78;;;12.10;99.90;;;;;;6086441;23;20389;-90
2023/08/29 05:51:53;;;;;;;49.38;34.42;;;12.10;99.90;;;;;;6135630;23;20048;-89
2023/08/29 05:58:26;;;;;;;54.42;34.72;;;12.20;99.90;;;;;;6152528;23;20029;-93
2023/08/29 06:01:38;;;;;;;49.78;36.15;;;12.20;99.90;;;;;;6133049;23;20025;-89
2023/08/29 06:04:34;;;;;;;47.60;34.25;;;12.20;99.90;;;;;;6135533;23;20084;-90
2023/08/29 06:07:50;;;;;;;47.47;34.95;;;12.20;99.90;;;;;;6134213;23;20108;-91
2023/08/29 06:11:09;;;;;;;;;;;;;;;;;;;;;
2023/08/29 06:14:08;;;;;;;46.92;33.05;;;12.20;99.90;;;;;;6275931;22;20023;-87
2023/08/29 06:17:05;;;;;;;44.17;31.70;;;12.20;99.90;;;;;;6272176;22;20024;-88
2023/08/29 06:19:52;;;;;;;48.22;33.80;;;12.20;99.90;;;;;;6253312;22;20354;-85
2023/08/29 06:22:40;;;;;;;43.30;31.92;;;12.20;99.90;;;;;;6272991;22;20085;-88
2023/08/29 06:25:37;;;;;;;42.90;31.73;;;12.10;99.90;;;;;;6274185;22;20314;-88
2023/08/29 06:37:10;;;;;;;42.33;33.53;;;12.20;99.90;;;;;;6102652;23;20425;-89
2023/08/29 06:40:41;;;;;;;;;;;;;;;;;;;;;
2023/08/29 06:43:56;;;;;;;45.88;33.75;;;12.20;99.90;;;;;;6092808;23;20049;-87
2023/08/29 06:46:47;;;;;;;43.80;34.20;;;12.20;99.90;;;;;;6149709;23;20604;-87
2023/08/29 06:49:35;;;;;;;44.83;32.90;;;12.30;99.90;;;;;;6180447;23;20075;-87
2023/08/29 06:52:42;;;;;;;43.88;32.58;;;12.30;99.90;;;;;;6112286;23;20396;-87
2023/08/29 06:55:34;;;;;;;43.08;30.33;;;12.30;99.90;;;;;;6246018;23;20035;-87
2023/08/29 06:58:43;;;;;;;37.03;31.20;;;12.40;99.90;;;;;;6245706;23;20039;-88
2023/08/29 07:02:52;;;;;;;;;;;;;;;;;;;;;
2023/08/29 07:06:22;;;;;;;;;;;;;;;;;;;;;
2023/08/29 07:09:49;;;;;;;42.10;30.25;;;12.30;99.90;;;;;;6093778;23;20041;-89
2023/08/29 07:13:30;;;;;;;40.45;30.10;;;12.30;99.90;;;;;;6094561;23;20232;-89
2023/08/29 07:16:34;;;;;;;;;;;;;;;;;;;;;
2023/08/29 07:19:24;;;;;;;37.03;28.60;;;12.30;99.90;;;;;;6136470;23;20033;-88
2023/08/29 07:22:22;;;;;;;41.00;31.40;;;12.30;99.90;;;;;;6151151;23;20317;-88
2023/08/29 07:25:11;;;;;;;45.17;32.03;;;12.30;99.90;;;;;;6129998;23;20029;-85
2023/08/29 07:28:01;;;;;;;44.05;31.25;;;12.30;99.90;;;;;;6151286;23;20045;-86
2023/08/29 07:30:51;;;;;;;42.63;32.22;;;12.30;99.90;;;;;;6144024;23;20029;-87
2023/08/29 07:33:39;;;;;;;41.60;32.30;;;12.40;99.90;;;;;;6179079;23;20056;-87
2023/08/29 07:36:27;;;;;;;44.53;33.08;;;12.40;99.90;;;;;;6170507;23;20428;-87
2023/08/29 07:39:17;;;;;;;43.30;32.38;;;12.40;99.90;;;;;;6149024;23;20107;-85
2023/08/29 07:42:05;;;;;;;39.38;30.10;;;12.40;99.90;;;;;;6196820;22;20027;-85
2023/08/29 07:44:56;;;;;;;42.80;32.10;;;12.50;99.90;;;;;;6271526;22;20065;-87
2023/08/29 07:47:44;;;;;;;37.25;30.75;;;12.60;99.90;;;;;;6253782;22;20027;-86
2023/08/29 07:50:40;;;;;;;36.85;30.00;;;12.60;99.90;;;;;;6276084;22;20059;-86
2023/08/29 07:53:28;;;;;;;37.15;29.58;;;12.70;99.90;;;;;;6254680;22;20023;-85
2023/08/29 07:56:15;;;;;;;35.13;28.45;;;12.70;99.90;;;;;;6274505;22;20412;-86
2023/08/29 07:59:03;;;;;;;34.13;27.65;;;12.70;99.90;;;;;;6254725;22;20019;-89
2023/08/29 08:01:57;;;;;;;36.00;28.08;;;12.70;99.90;;;;;;6253086;22;20030;-91
2023/08/29 08:04:52;;;;;;;36.22;29.73;;;12.70;99.90;;;;;;6273976;22;20051;-91
2023/08/29 08:07:51;;;;;;;36.15;30.67;;;12.70;99.90;;;;;;6255387;22;20096;-88
2023/08/29 08:10:41;;;;;;;38.65;29.80;;;12.70;99.90;;;;;;6254333;22;20038;-89
2023/08/29 08:13:37;;;;;;;34.92;29.15;;;12.70;99.90;;;;;;6253687;22;20023;-88
2023/08/29 08:16:25;;;;;;;38.28;31.05;;;12.70;99.90;;;;;;6253129;22;20019;-91
2023/08/29 08:19:23;;;;;;;37.55;30.40;;;12.80;99.90;;;;;;6274161;22;20020;-87
2023/08/29 08:22:12;;;;;;;38.50;30.23;;;12.90;99.90;;;;;;6254049;22;20024;-89
2023/08/29 08:25:03;;;;;;;34.33;28.67;;;13.00;99.90;;;;;;6253002;22;20097;-89
2023/08/29 08:28:13;;;;;;;36.53;30.88;;;13.10;99.90;;;;;;6271761;22;20031;-90
2023/08/29 08:35:10;;;;;;;38.05;30.15;;;13.20;99.90;;;;;;6172080;23;20035;-89
2023/08/29 08:38:15;;;;;;;39.95;31.95;;;13.20;99.90;;;;;;6165038;23;20025;-91
2023/08/29 08:41:07;;;;;;;34.58;30.50;;;13.20;99.90;;;;;;6150247;23;20214;-87
2023/08/29 08:43:56;;;;;;;39.30;31.13;;;13.20;99.90;;;;;;6183027;23;20398;-85
2023/08/29 08:46:46;;;;;;;39.28;30.80;;;13.30;99.90;;;;;;6162358;23;20025;-90
2023/08/29 08:49:34;;;;;;;33.67;30.13;;;13.40;99.90;;;;;;6164339;23;20029;-91
2023/08/29 08:52:23;;;;;;;32.47;29.05;;;13.50;99.90;;;;;;6166679;23;20080;-88
2023/08/29 08:55:12;;;;;;;32.00;28.17;;;13.60;99.90;;;;;;6168093;23;20021;-89
2023/08/29 08:58:03;;;;;;;29.35;26.30;;;13.80;99.90;;;;;;6167132;23;20124;-89
2023/08/29 09:01:29;;;;;;;29.63;26.13;;;13.80;99.90;;;;;;6184404;23;20028;-93
2023/08/29 09:04:22;;;;;;;30.92;25.15;;;13.80;99.90;;;;;;6164010;23;20037;-90
2023/08/29 09:07:17;;;;;;;29.23;25.95;;;13.80;99.90;;;;;;6170208;22;20159;-90
2023/08/29 09:10:21;;;;;;;31.98;26.70;;;13.60;99.90;;;;;;6255082;22;20076;-88
2023/08/29 09:13:16;;;;;;;31.80;27.80;;;13.60;99.90;;;;;;6276313;22;20027;-87
2023/08/29 09:16:29;;;;;;;30.70;27.45;;;13.80;99.90;;;;;;6276003;22;20032;-91
2023/08/29 09:19:22;;;;;;;29.42;26.30;;;14.00;99.90;;;;;;6275443;22;20028;-87
2023/08/29 09:22:10;;;;;;;27.85;25.05;;;14.00;99.90;;;;;;6255134;22;20051;-89
2023/08/29 09:25:03;;;;;;;31.80;26.10;;;14.00;99.90;;;;;;6254699;22;20043;-90
2023/08/29 09:27:53;;;;;;;28.70;25.70;;;14.10;99.90;;;;;;6276743;22;20035;-88
2023/08/29 09:30:41;;;;;;;27.77;24.83;;;14.00;99.90;;;;;;6276910;22;20028;-87
2023/08/29 09:33:40;;;;;;;27.60;24.42;;;14.00;99.90;;;;;;6247302;22;20304;-89
2023/08/29 09:37:00;;;;;;;;;;;;;;;;;;;;;
2023/08/29 09:39:53;;;;;;;29.00;25.90;;;14.30;99.90;;;;;;6276843;22;20023;-89
2023/08/29 09:42:41;;;;;;;26.30;23.60;;;14.40;99.90;;;;;;6255977;22;20030;-88
2023/08/29 09:45:37;;;;;;;25.20;22.60;;;14.60;99.90;;;;;;6255483;22;20035;-87
2023/08/29 09:48:25;;;;;;;24.02;21.63;;;14.60;99.90;;;;;;6255244;22;20356;-87
2023/08/29 09:51:12;;;;;;;22.27;20.13;;;14.70;99.90;;;;;;6275670;22;20293;-86
2023/08/29 09:54:07;;;;;;;23.98;19.98;;;14.80;99.90;;;;;;6277140;22;20027;-86
2023/08/29 09:56:56;;;;;;;20.85;18.63;;;14.90;99.90;;;;;;6252919;22;20024;-87
2023/08/29 09:59:52;;;;;;;18.80;16.80;;;14.90;99.90;;;;;;6275128;22;20035;-88
2023/08/29 10:02:55;;;;;;;18.92;17.02;;;14.80;99.90;;;;;;6272810;22;20095;-88
2023/08/29 10:05:48;;;;;;;20.05;18.15;;;14.80;99.90;;;;;;6255275;22;20027;-89
2023/08/29 10:08:41;;;;;;;17.70;15.35;;;15.00;99.90;;;;;;6255046;22;20336;-88
2023/08/29 10:11:32;;;;;;;16.45;14.80;;;15.20;99.90;;;;;;6277907;22;20047;-91
2023/08/29 10:14:32;;;;;;;14.60;13.10;;;15.50;99.90;;;;;;6276856;22;20023;-89
2023/08/29 10:17:19;;;;;;;15.30;13.68;;;15.60;99.90;;;;;;6278042;22;20035;-89
2023/08/29 10:20:19;;;;;;;12.93;11.50;;;15.60;99.90;;;;;;6277795;22;20027;-90
2023/08/29 10:23:07;;;;;;;12.85;11.27;;;15.70;99.90;;;;;;6254851;22;20027;-89
2023/08/29 10:25:58;;;;;;;13.20;10.52;;;15.70;99.90;;;;;;6277382;22;20490;-88
2023/08/29 10:28:46;;;;;;;11.48;10.30;;;15.70;99.90;;;;;;6281063;22;20081;-88
2023/08/29 10:31:35;;;;;;;12.15;10.30;;;15.70;99.90;;;;;;6277313;22;20028;-88
2023/08/29 10:34:24;;;;;;;12.48;10.38;;;16.00;99.90;;;;;;6254968;22;20089;-89
2023/08/29 10:37:25;;;;;;;9.68;8.65;;;16.40;99.90;;;;;;6278851;22;20030;-90
2023/08/29 10:40:13;;;;;;;9.52;8.27;;;16.40;1.00;;;;;;6278035;22;20027;-89
2023/08/29 10:43:24;;;;;;;9.98;8.88;;;16.40;99.90;;;;;;6258282;22;20153;-92
2023/08/29 10:46:14;;;;;;;13.02;9.80;;;16.30;99.90;;;;;;6277507;22;20020;-89
2023/08/29 10:49:10;;;;;;;14.95;12.05;;;15.90;99.90;;;;;;6257027;22;20035;-90
2023/08/29 10:52:21;;;;;;;;;;;;;;;;;;;;;
2023/08/29 10:56:09;;;;;;;;;;;;;;;;;;;;;
2023/08/29 10:59:36;;;;;;;20.58;18.40;;;14.40;99.90;;;;;;6068172;23;20387;-89
2023/08/29 11:02:49;;;;;;;30.30;22.58;;;14.00;99.90;;;;;;6178505;23;20088;-86
2023/08/29 11:05:39;;;;;;;25.63;23.00;;;13.90;99.90;;;;;;6160860;23;20029;-84
2023/08/29 11:08:27;;;;;;;29.58;25.70;;;14.00;99.90;;;;;;6182813;23;20033;-87
2023/08/29 11:11:22;;;;;;;29.65;26.65;;;13.90;99.90;;;;;;6164159;23;20064;-87
2023/08/29 11:14:10;;;;;;;32.20;27.50;;;14.00;99.90;;;;;;6183213;23;20036;-87
2023/08/29 11:17:22;;;;;;;33.50;29.52;;;14.10;99.90;;;;;;6184478;23;20036;-87
2023/08/29 11:20:14;;;;;;;33.28;29.35;;;14.10;99.90;;;;;;6164217;23;20029;-86
2023/08/29 11:23:02;;;;;;;31.65;28.20;;;14.10;99.90;;;;;;6183956;23;20052;-87
2023/08/29 11:25:51;;;;;;;31.48;28.20;;;14.10;99.90;;;;;;6163837;23;20129;-84
2023/08/29 11:28:47;;;;;;;31.67;28.50;;;14.10;99.90;;;;;;6185006;23;20029;-85
2023/08/29 11:31:43;;;;;;;31.98;28.58;;;14.10;99.90;;;;;;6181475;23;20047;-89
2023/08/29 11:34:35;;;;;;;29.60;26.63;;;14.10;99.90;;;;;;6246202;22;20449;-84
2023/08/29 11:37:24;;;;;;;27.58;24.60;;;14.20;99.90;;;;;;6273653;22;20362;-86
2023/08/29 11:40:18;;;;;;;28.38;25.38;;;14.10;99.90;;;;;;6253102;22;20024;-85
2023/08/29 11:43:16;;;;;;;28.17;25.13;;;14.00;99.90;;;;;;6273906;22;20261;-86
2023/08/29 11:46:36;;;;;;;28.88;25.90;;;14.10;99.90;;;;;;6259300;22;20020;-87
2023/08/29 11:49:27;;;;;;;30.42;27.38;;;14.10;99.90;;;;;;6274893;22;20038;-86
2023/08/29 11:52:16;;;;;;;21.40;18.42;;;14.10;99.90;;;;;;6256297;22;20043;-87
2023/08/29 11:55:35;;;;;;;31.95;28.33;;;14.30;99.90;;;;;;6255126;22;20102;-86
2023/08/29 11:58:44;;;;;;;27.48;24.42;;;14.50;99.90;;;;;;6255181;22;20020;-86
2023/08/29 12:01:57;;;;;;;25.88;23.38;;;14.60;99.90;;;;;;6257868;22;20020;-85
2023/08/29 12:04:47;;;;;;;26.70;24.02;;;14.70;99.90;;;;;;6275321;22;20490;-85
2023/08/29 12:07:35;;;;;;;23.80;21.33;;;14.80;99.90;;;;;;6255303;22;20024;-84
2023/08/29 12:10:26;;;;;;;22.13;19.92;;;14.80;99.90;;;;;;6276057;22;20028;-85
2023/08/29 12:13:14;;;;;;;23.95;21.60;;;14.90;99.90;;;;;;6273972;22;20027;-86
2023/08/29 12:16:03;;;;;;;26.80;20.65;;;15.00;99.90;;;;;;6253884;22;20019;-85
2023/08/29 12:19:06;;;;;;;23.95;19.88;;;15.10;99.90;;;;;;6275070;22;20077;-85
2023/08/29 12:21:59;;;;;;;21.48;19.50;;;15.10;99.90;;;;;;6253876;22;20035;-84
2023/08/29 12:24:58;;;;;;;22.45;20.10;;;15.20;99.90;;;;;;6276579;22;20091;-89
2023/08/29 12:27:47;;;;;;;21.88;19.45;;;15.20;99.90;;;;;;6255038;22;20215;-88
2023/08/29 12:30:35;;;;;;;21.23;18.98;;;15.10;99.90;;;;;;6275306;22;20127;-90
2023/08/29 12:33:24;;;;;;;22.70;20.30;;;14.90;99.90;;;;;;6280812;22;20043;-90
2023/08/29 12:36:24;;;;;;;;;;;;;;;;;;;;;
2023/08/29 12:39:54;;;;;;;23.85;21.45;;;14.80;99.90;;;;;;6274546;22;20105;-91
2023/08/29 12:42:55;;;;;;;;;;;;;;;;;;;;;
2023/08/29 12:45:51;;;;;;;29.45;25.60;;;14.70;99.90;;;;;;6273945;22;20031;-87
2023/08/29 12:48:46;;;;;;;30.85;27.70;;;14.60;99.90;;;;;;6253645;22;20051;-86
2023/08/29 12:51:45;;;;;;;26.98;24.33;;;14.70;99.90;;;;;;6250318;22;20038;-87
2023/08/29 13:12:11;;;;;;;32.00;28.27;;;14.40;99.90;;;;;;6006622;23;20008;-90
2023/08/29 13:23:09;;;;;;;32.45;29.15;;;14.50;99.90;;;;;;6071263;23;20018;-87
2023/08/29 13:26:09;;;;;;;31.70;28.60;;;14.70;99.90;;;;;;6092122;23;20068;-86
2023/08/29 13:28:59;;;;;;;31.13;28.05;;;14.80;99.90;;;;;;6092927;23;20030;-88
2023/08/29 13:32:32;;;;;;;29.13;26.13;;;14.70;99.90;;;;;;6093462;23;20403;-88
2023/08/29 13:36:04;;;;;;;24.52;22.05;;;14.70;99.90;;;;;;6094142;23;20548;-88
2023/08/29 13:39:52;;;;;;;23.48;21.08;;;14.70;99.90;;;;;;6071815;23;20422;-89
2023/08/29 13:43:11;;;;;;;23.48;21.13;;;14.70;99.90;;;;;;6035203;23;20107;-90
2023/08/29 13:46:30;;;;;;;23.58;21.05;;;14.70;99.90;;;;;;6036985;23;20122;-87
2023/08/29 14:10:15;;;;;;;17.23;15.40;;;14.80;99.90;;;;;;6183738;23;20392;-93
2023/08/29 14:13:03;;;;;;;19.42;17.30;;;15.00;99.90;;;;;;6188502;23;20025;-90
2023/08/29 14:15:57;;;;;;;16.95;15.23;;;15.10;99.90;;;;;;6186147;23;20081;-92
2023/08/29 14:18:46;;;;;;;16.58;14.05;;;15.20;99.90;;;;;;6190318;22;20021;-91
2023/08/29 14:21:44;;;;;;;14.07;12.80;;;15.30;99.90;;;;;;6187022;23;20047;-91
2023/08/29 14:24:34;;;;;;;19.13;14.10;;;15.20;99.90;;;;;;6187242;23;20133;-90
2023/08/29 14:27:29;;;;;;;15.82;14.23;;;15.10;99.90;;;;;;6189019;23;20025;-91
2023/08/29 14:30:22;;;;;;;15.15;13.25;;;15.20;99.90;;;;;;6187819;23;20381;-90
2023/08/29 14:33:10;;;;;;;14.85;13.00;;;15.30;99.90;;;;;;6162205;23;20064;-89
2023/08/29 14:36:03;;;;;;;14.77;11.80;;;15.50;99.90;;;;;;6211827;22;20019;-90
2023/08/29 14:38:51;;;;;;;13.68;12.23;;;15.60;99.90;;;;;;6256894;22;20019;-90
2023/08/29 14:41:42;;;;;;;19.52;13.30;;;15.90;99.90;;;;;;6256793;22;20441;-90
2023/08/29 14:44:30;;;;;;;15.40;13.80;;;15.90;99.90;;;;;;6257587;22;20367;-91
2023/08/29 14:47:17;;;;;;;16.98;15.43;;;15.60;99.90;;;;;;6256455;22;20020;-90
2023/08/29 14:50:08;;;;;;;16.38;14.70;;;15.60;99.90;;;;;;6282056;22;20023;-90
2023/08/29 14:52:55;;;;;;;14.68;13.38;;;15.60;99.90;;;;;;6278882;22;20431;-90
2023/08/29 14:55:45;;;;;;;15.85;14.27;;;15.70;99.90;;;;;;6275373;22;20075;-90
2023/08/29 14:58:33;;;;;;;17.77;16.02;;;15.90;99.90;;;;;;6277549;22;20019;-90
2023/08/29 15:01:22;;;;;;;22.02;19.38;;;15.80;99.90;;;;;;6268730;22;20419;-90
2023/08/29 15:04:09;;;;;;;17.67;15.88;;;15.60;99.90;;;;;;6258426;22;20019;-92
2023/08/29 15:06:56;;;;;;;18.17;16.08;;;15.60;99.90;;;;;;6280267;22;20034;-90
2023/08/29 15:09:45;;;;;;;17.27;15.68;;;15.70;99.90;;;;;;6278639;22;20033;-90
2023/08/29 15:12:33;;;;;;;16.33;14.75;;;15.90;99.90;;;;;;6277644;22;20034;-90
2023/08/29 15:15:20;;;;;;;13.50;12.20;;;16.00;99.90;;;;;;6279552;22;20024;-90
2023/08/29 15:18:08;;;;;;;12.27;11.20;;;16.00;99.90;;;;;;6253789;22;20095;-90
2023/08/29 15:20:56;;;;;;;11.50;9.55;;;16.10;99.90;;;;;;6254596;22;20038;-88
2023/08/29 15:23:43;;;;;;;10.82;9.05;;;16.30;99.90;;;;;;6257082;22;20030;-90
2023/08/29 15:26:33;;;;;;;10.85;9.70;;;16.40;99.90;;;;;;6276208;22;20027;-90
2023/08/29 15:29:25;;;;;;;12.35;9.90;;;16.40;91.20;;;;;;6255568;22;20046;-90
2023/08/29 15:32:12;;;;;;;9.43;8.57;;;16.40;99.90;;;;;;6200039;22;1797976;-89
2023/08/29 15:35:05;;;;;;;10.23;7.82;;;16.50;23.10;;;;;;6279970;22;20410;-89
2023/08/29 15:37:52;;;;;;;;;;;16.60;1.00;;;;;;6280066;22;20019;-92
2023/08/29 15:40:43;;;;;;;6.15;5.38;;;16.70;99.90;;;;;;6276668;22;19962;-91
2023/08/29 15:43:33;;;;;;;6.72;5.47;;;16.80;99.90;;;;;;6237956;22;20024;-90
2023/08/29 15:46:21;;;;;;;6.13;5.57;;;16.80;99.90;;;;;;6279989;22;20131;-91
2023/08/29 15:49:11;;;;;;;8.25;6.68;;;16.80;1.00;;;;;;6277536;22;20106;-91
2023/08/29 15:51:58;;;;;;;5.82;5.22;;;16.60;99.90;;;;;;6255498;22;20445;-89
2023/08/29 15:54:49;;;;;;;8.80;5.47;;;16.60;1.00;;;;;;6277257;22;20314;-90
2023/08/29 15:57:37;;;;;;;5.20;4.70;;;16.60;39.40;;;;;;6254104;22;20034;-91
2023/08/29 16:00:24;;;;;;;6.72;6.00;;;16.60;1.00;;;;;;6258381;22;20445;-93
2023/08/29 16:03:12;;;;;;;6.32;4.72;;;16.60;99.90;;;;;;6277977;22;20028;-92
2023/08/29 16:10:04;;;;;;;6.10;5.35;;;16.60;99.90;;;;;;6277217;22;20011;-91
2023/08/29 16:12:51;;;;;;;6.45;5.43;;;16.50;99.90;;;;;;6255953;22;20024;-91
2023/08/29 16:15:39;;;;;;;6.90;5.60;;;16.40;99.90;;;;;;6257413;22;20024;-91
2023/08/29 16:18:28;;;;;;;6.10;5.47;;;16.30;1.00;;;;;;6275992;22;20019;-91
2023/08/29 16:21:20;;;;;;;6.40;5.80;;;16.10;99.90;;;;;;6279242;22;20059;-86
2023/08/29 16:24:08;;;;;;;6.25;5.65;;;16.00;40.70;;;;;;6278153;22;20094;-87
2023/08/29 16:26:59;;;;;;;5.47;5.03;;;16.00;1.00;;;;;;6231973;22;20102;-90
2023/08/29 16:29:46;;;;;;;6.53;4.60;;;15.90;99.90;;;;;;6277886;22;20291;-90
2023/08/29 16:32:36;;;;;;;7.28;5.15;;;15.90;99.90;;;;;;6273642;22;20028;-89
2023/08/29 16:35:23;;;;;;;7.63;5.65;;;15.80;1.00;;;;;;6254881;22;20103;-89
2023/08/29 16:38:11;;;;;;;6.75;5.40;;;15.60;99.90;;;;;;6279462;22;20032;-89
2023/08/29 16:40:58;;;;;;;5.75;4.80;;;15.50;99.90;;;;;;6230987;22;20081;-87
2023/08/29 16:44:10;;;;;;;4.95;4.45;;;15.50;99.90;;;;;;6256093;22;20012;-87
2023/08/29 16:47:17;;;;;;;7.43;4.70;;;15.40;99.90;;;;;;6253166;22;20098;-87
2023/08/29 16:50:05;;;;;;;11.15;7.90;;;15.30;38.00;;;;;;6271431;22;20054;-87
2023/08/29 16:52:56;;;;;;;19.10;10.10;;;15.30;1.00;;;;;;6277536;22;20023;-88
2023/08/29 16:55:43;;;;;;;19.77;13.35;;;15.20;1.00;;;;;;6279350;22;20027;-89